createdAt,value
2017-08-30T00:01:54.516Z,18.10
2017-08-30T00:04:22.067Z,18.57
2017-08-30T00:06:49.457Z,18.33
2017-08-30T00:09:16.846Z,17.90
2017-08-30T00:11:44.351Z,18.23
2017-08-30T00:14:11.750Z,17.93
2017-08-30T00:16:39.139Z,17.60
2017-08-30T00:19:06.691Z,18.53
2017-08-30T00:21:34.094Z,18.73
2017-08-30T00:24:01.487Z,18.13
2017-08-30T00:26:28.940Z,18.00
2017-08-30T00:28:56.333Z,17.50
2017-08-30T00:31:23.723Z,18.37
2017-08-30T00:33:51.271Z,18.03
2017-08-30T00:36:18.659Z,18.10
2017-08-30T00:38:46.054Z,18.00
2017-08-30T00:41:13.606Z,19.47
2017-08-30T00:43:40.999Z,19.03
2017-08-30T00:46:08.385Z,16.80
2017-08-30T00:48:35.839Z,16.83
2017-08-30T00:51:03.227Z,19.20
2017-08-30T00:53:30.622Z,18.70
2017-08-30T00:55:58.030Z,19.70
2017-08-30T00:58:25.418Z,18.10
2017-08-30T01:00:52.817Z,17.33
2017-08-30T01:03:20.358Z,18.87
2017-08-30T01:05:47.751Z,18.90
2017-08-30T01:08:15.148Z,19.10
2017-08-30T01:10:42.591Z,17.60
2017-08-30T01:13:09.982Z,19.10
2017-08-30T01:15:37.374Z,18.37
2017-08-30T01:18:04.879Z,17.70
2017-08-30T01:20:32.275Z,18.03
2017-08-30T01:22:59.667Z,18.67
2017-08-30T01:25:27.212Z,18.77
2017-08-30T01:27:54.607Z,18.90
2017-08-30T01:30:21.998Z,17.93
2017-08-30T01:32:49.554Z,19.13
2017-08-30T01:35:16.951Z,17.57
2017-08-30T01:37:44.342Z,18.60
2017-08-30T01:40:11.886Z,18.23
2017-08-30T01:42:39.283Z,17.17
2017-08-30T01:45:06.674Z,19.50
2017-08-30T01:47:34.227Z,17.13
2017-08-30T01:50:01.623Z,18.47
2017-08-30T01:52:29.019Z,18.30
2017-08-30T01:54:56.432Z,18.90
2017-08-30T01:57:23.823Z,17.97
2017-08-30T01:59:51.218Z,18.97
2017-08-30T02:02:18.767Z,18.50
2017-08-30T02:04:46.163Z,19.43
2017-08-30T02:07:13.554Z,17.07
2017-08-30T02:09:40.971Z,18.73
2017-08-30T02:12:08.362Z,18.43
2017-08-30T02:14:35.755Z,19.20
2017-08-30T02:17:03.299Z,17.90
2017-08-30T02:19:30.691Z,18.73
2017-08-30T02:21:58.087Z,18.60
2017-08-30T02:24:26.011Z,18.83
2017-08-30T02:26:53.406Z,19.17
2017-08-30T02:29:20.806Z,18.63
2017-08-30T02:31:48.514Z,17.50
2017-08-30T02:34:15.916Z,19.00
2017-08-30T02:36:43.318Z,18.90
2017-08-30T02:39:10.867Z,18.23
2017-08-30T02:41:38.259Z,19.13
2017-08-30T02:44:05.654Z,18.23
2017-08-30T02:46:33.063Z,19.10
2017-08-30T02:49:00.459Z,18.30
2017-08-30T02:51:27.854Z,19.20
2017-08-30T02:53:55.399Z,18.50
2017-08-30T02:56:22.790Z,19.50
2017-08-30T02:58:50.182Z,17.57
2017-08-30T03:01:17.607Z,18.20
2017-08-30T03:03:45.006Z,17.77
2017-08-30T03:06:12.398Z,18.97
2017-08-30T03:08:39.807Z,18.80
2017-08-30T03:11:07.197Z,18.90
2017-08-30T03:13:34.603Z,17.77
2017-08-30T03:16:02.002Z,19.00
2017-08-30T03:18:29.394Z,18.50
2017-08-30T03:20:56.782Z,18.40
2017-08-30T03:23:24.331Z,19.27
2017-08-30T03:25:51.723Z,18.43
2017-08-30T03:28:19.138Z,19.57
2017-08-30T03:30:46.689Z,18.73
2017-08-30T03:33:14.083Z,19.30
2017-08-30T03:35:41.476Z,19.27
2017-08-30T03:38:08.894Z,19.80
2017-08-30T03:40:36.283Z,19.60
2017-08-30T03:43:03.674Z,18.47
2017-08-30T03:45:31.082Z,19.10
2017-08-30T03:47:58.474Z,18.73
2017-08-30T03:50:25.863Z,18.97
2017-08-30T03:52:53.267Z,18.40
2017-08-30T03:55:20.667Z,18.33
2017-08-30T03:57:48.064Z,17.50
2017-08-30T04:00:15.511Z,17.97
2017-08-30T04:02:42.903Z,17.67
2017-08-30T04:05:10.299Z,18.63
2017-08-30T04:07:37.802Z,17.67
2017-08-30T04:10:05.198Z,18.87
2017-08-30T04:12:32.590Z,18.43
2017-08-30T04:14:59.990Z,18.90
2017-08-30T04:17:27.382Z,17.90
2017-08-30T04:19:54.773Z,18.57
2017-08-30T04:22:22.472Z,17.77
2017-08-30T04:24:49.870Z,18.37
2017-08-30T04:27:17.264Z,18.03
2017-08-30T04:29:44.762Z,17.50
2017-08-30T04:32:12.162Z,18.23
2017-08-30T04:34:39.556Z,17.40
2017-08-30T04:37:07.273Z,17.40
2017-08-30T04:39:34.662Z,17.83
2017-08-30T04:42:02.062Z,18.13
2017-08-30T04:44:29.846Z,17.07
2017-08-30T04:46:57.239Z,17.73
2017-08-30T04:49:24.634Z,18.47
2017-08-30T04:51:52.429Z,18.57
2017-08-30T04:54:19.822Z,17.50
2017-08-30T04:56:47.223Z,18.03
2017-08-30T04:59:14.770Z,17.57
2017-08-30T05:01:42.467Z,17.63
2017-08-30T05:04:09.862Z,18.30
2017-08-30T05:06:37.411Z,17.93
2017-08-30T05:09:04.823Z,17.90
2017-08-30T05:11:32.218Z,16.40
2017-08-30T05:14:00.156Z,17.50
2017-08-30T05:16:27.547Z,17.00
2017-08-30T05:18:54.940Z,17.60
2017-08-30T05:21:22.497Z,17.73
2017-08-30T05:23:49.882Z,17.00
2017-08-30T05:26:17.275Z,16.20
2017-08-30T05:28:44.686Z,18.07
2017-08-30T05:31:12.078Z,17.87
2017-08-30T05:33:39.466Z,18.20
2017-08-30T05:36:06.879Z,17.17
2017-08-30T05:38:34.275Z,17.30
2017-08-30T05:41:01.668Z,17.73
2017-08-30T05:43:29.231Z,16.77
2017-08-30T05:45:56.629Z,17.07
2017-08-30T05:48:24.015Z,17.97
2017-08-30T05:50:51.562Z,18.10
2017-08-30T05:53:18.951Z,21.40
2017-08-30T05:55:46.342Z,19.13
2017-08-30T05:58:14.079Z,19.20
2017-08-30T06:00:41.470Z,19.83
2017-08-30T06:03:08.862Z,18.23
2017-08-30T06:05:36.407Z,17.03
2017-08-30T06:08:03.803Z,17.27
2017-08-30T06:10:32.155Z,17.97
2017-08-30T06:12:59.649Z,17.10
2017-08-30T06:15:27.046Z,18.40
2017-08-30T06:17:54.443Z,17.53
2017-08-30T06:20:21.843Z,17.20
2017-08-30T06:22:49.245Z,17.07
2017-08-30T06:25:16.630Z,17.20
2017-08-30T06:27:44.499Z,17.10
2017-08-30T06:30:11.891Z,18.03
2017-08-30T06:32:39.283Z,18.23
2017-08-30T06:35:06.847Z,18.00
2017-08-30T06:37:34.239Z,17.63
2017-08-30T06:40:01.630Z,16.90
2017-08-30T06:42:29.038Z,17.40
2017-08-30T06:44:56.434Z,17.23
2017-08-30T06:47:23.826Z,16.83
2017-08-30T06:49:51.238Z,17.43
2017-08-30T06:52:18.631Z,17.40
2017-08-30T06:54:46.028Z,16.70
2017-08-30T06:57:13.779Z,17.83
2017-08-30T06:59:41.166Z,16.80
2017-08-30T07:02:08.563Z,18.00
2017-08-30T07:04:35.975Z,17.90
2017-08-30T07:07:03.368Z,16.97
2017-08-30T07:09:30.757Z,17.17
2017-08-30T07:11:58.510Z,16.17
2017-08-30T07:14:25.906Z,18.00
2017-08-30T07:16:53.291Z,18.67
2017-08-30T07:19:20.730Z,17.70
2017-08-30T07:21:48.126Z,17.13
2017-08-30T07:24:15.514Z,18.50
2017-08-30T07:26:43.275Z,18.13
2017-08-30T07:29:10.666Z,17.60
2017-08-30T07:31:38.063Z,16.60
2017-08-30T07:34:05.503Z,17.53
2017-08-30T07:36:32.894Z,16.93
2017-08-30T07:39:00.287Z,17.53
2017-08-30T07:41:28.014Z,17.50
2017-08-30T07:43:55.411Z,18.13
2017-08-30T07:46:22.806Z,18.07
2017-08-30T07:48:50.312Z,17.97
2017-08-30T07:51:17.695Z,19.07
2017-08-30T07:53:45.087Z,17.10
2017-08-30T07:56:12.754Z,19.97
2017-08-30T07:58:40.158Z,17.50
2017-08-30T08:01:07.552Z,19.10
2017-08-30T08:03:35.104Z,17.97
2017-08-30T08:06:02.490Z,18.27
2017-08-30T08:08:29.892Z,18.83
2017-08-30T08:10:57.297Z,18.30
2017-08-30T08:13:24.689Z,18.20
2017-08-30T08:15:52.083Z,17.67
2017-08-30T08:18:19.586Z,18.53
2017-08-30T08:20:46.994Z,18.60
2017-08-30T08:23:14.384Z,17.87
2017-08-30T08:25:41.798Z,19.47
2017-08-30T08:28:09.190Z,19.30
2017-08-30T08:30:36.587Z,19.50
2017-08-30T08:33:04.003Z,18.47
2017-08-30T08:35:31.397Z,18.47
2017-08-30T08:37:58.798Z,17.57
2017-08-30T08:40:26.583Z,19.50
2017-08-30T08:42:53.975Z,19.80
2017-08-30T08:45:21.365Z,18.60
2017-08-30T08:47:49.163Z,19.77
2017-08-30T08:50:16.550Z,18.40
2017-08-30T08:52:43.958Z,19.20
2017-08-30T08:55:11.518Z,19.70
2017-08-30T08:57:38.903Z,20.60
2017-08-30T09:00:06.294Z,20.43
2017-08-30T09:02:33.844Z,20.47
2017-08-30T09:05:01.234Z,23.63
2017-08-30T09:07:28.648Z,23.60
2017-08-30T09:09:56.274Z,23.70
2017-08-30T09:12:23.670Z,22.30
2017-08-30T09:14:51.063Z,22.17
2017-08-30T09:17:18.483Z,20.87
2017-08-30T09:19:45.883Z,20.73
2017-08-30T09:22:13.286Z,20.80
2017-08-30T09:24:40.834Z,21.50
2017-08-30T09:27:08.224Z,19.57
2017-08-30T09:29:35.614Z,19.37
2017-08-30T09:32:03.162Z,20.23
2017-08-30T09:34:30.559Z,20.47
2017-08-30T09:36:57.954Z,19.87
2017-08-30T09:39:25.559Z,20.03
2017-08-30T09:41:52.955Z,19.80
2017-08-30T09:44:20.347Z,19.73
2017-08-30T09:46:47.785Z,20.30
2017-08-30T09:49:15.166Z,19.80
2017-08-30T09:51:42.562Z,19.50
2017-08-30T09:54:09.972Z,21.20
2017-08-30T09:56:37.363Z,19.10
2017-08-30T09:59:04.760Z,20.73
2017-08-30T10:01:32.306Z,19.03
2017-08-30T10:03:59.710Z,20.90
2017-08-30T10:06:27.103Z,18.37
2017-08-30T10:08:54.539Z,20.30
2017-08-30T10:11:21.931Z,19.23
2017-08-30T10:13:49.322Z,19.13
2017-08-30T10:16:16.727Z,19.17
2017-08-30T10:18:44.127Z,18.90
2017-08-30T10:21:11.538Z,18.77
2017-08-30T10:23:39.087Z,19.37
2017-08-30T10:26:06.479Z,19.60
2017-08-30T10:28:33.867Z,19.23
2017-08-30T10:31:01.419Z,18.83
2017-08-30T10:33:28.818Z,20.03
2017-08-30T10:35:56.210Z,19.30
2017-08-30T10:38:23.628Z,18.20
2017-08-30T10:40:51.019Z,20.17
2017-08-30T10:43:18.420Z,19.70
2017-08-30T10:45:45.855Z,18.63
2017-08-30T10:48:13.246Z,20.23
2017-08-30T10:50:40.647Z,21.30
2017-08-30T10:53:08.056Z,19.73
2017-08-30T10:55:35.451Z,20.60
2017-08-30T10:58:02.854Z,20.93
2017-08-30T11:00:30.634Z,20.13
2017-08-30T11:02:58.038Z,20.57
2017-08-30T11:05:25.434Z,20.83
2017-08-30T11:07:52.979Z,20.57
2017-08-30T11:10:20.371Z,18.80
2017-08-30T11:12:47.763Z,19.27
2017-08-30T11:15:15.422Z,19.10
2017-08-30T11:17:42.818Z,19.13
2017-08-30T11:20:10.211Z,19.37
2017-08-30T11:22:37.656Z,19.80
2017-08-30T11:25:05.040Z,20.23
2017-08-30T11:27:32.430Z,19.73
2017-08-30T11:29:59.829Z,19.10
2017-08-30T11:32:27.227Z,20.70
2017-08-30T11:34:54.622Z,20.37
2017-08-30T11:37:22.174Z,18.87
2017-08-30T11:39:49.574Z,19.53
2017-08-30T11:42:16.962Z,18.10
2017-08-30T11:44:44.871Z,20.67
2017-08-30T11:47:12.259Z,20.60
2017-08-30T11:49:39.650Z,20.03
2017-08-30T11:52:07.190Z,19.90
2017-08-30T11:54:34.598Z,20.07
2017-08-30T11:57:01.992Z,20.10
2017-08-30T11:59:29.535Z,20.03
2017-08-30T12:01:56.932Z,21.47
2017-08-30T12:04:24.374Z,20.80
2017-08-30T12:06:51.770Z,21.50
2017-08-30T12:09:19.162Z,21.33
2017-08-30T12:11:46.554Z,20.80
2017-08-30T12:14:13.954Z,20.80
2017-08-30T12:16:41.354Z,20.03
2017-08-30T12:19:08.742Z,20.33
2017-08-30T12:21:36.255Z,19.67
2017-08-30T12:24:03.634Z,20.30
2017-08-30T12:26:31.035Z,20.47
2017-08-30T12:28:58.546Z,19.30
2017-08-30T12:31:25.940Z,19.00
2017-08-30T12:33:53.322Z,20.07
2017-08-30T12:36:20.889Z,20.87
2017-08-30T12:38:53.882Z,19.80
2017-08-30T12:41:21.378Z,21.67
2017-08-30T12:43:48.780Z,20.87
2017-08-30T12:46:17.716Z,19.97
2017-08-30T12:48:46.128Z,21.50
2017-08-30T12:51:13.523Z,21.50
2017-08-30T12:53:40.948Z,21.17
2017-08-30T12:56:09.239Z,20.20
2017-08-30T12:58:36.635Z,20.17
2017-08-30T13:01:04.031Z,22.73
2017-08-30T13:03:31.534Z,22.30
2017-08-30T13:05:58.948Z,21.80
2017-08-30T13:08:26.351Z,22.20
2017-08-30T13:10:54.070Z,22.63
2017-08-30T13:13:21.473Z,21.63
2017-08-30T13:15:48.936Z,22.67
2017-08-30T13:18:16.492Z,21.33
2017-08-30T13:20:43.888Z,21.63
2017-08-30T13:23:11.283Z,22.33
2017-08-30T13:25:38.686Z,21.90
2017-08-30T13:28:06.109Z,21.50
2017-08-30T13:30:33.554Z,21.50
2017-08-30T13:33:01.013Z,23.03
2017-08-30T13:35:28.400Z,23.57
2017-08-30T13:37:56.512Z,22.00
2017-08-30T13:40:24.078Z,21.73
2017-08-30T13:42:51.512Z,21.10
2017-08-30T13:45:18.875Z,22.80
2017-08-30T13:47:46.315Z,23.53
2017-08-30T13:50:13.728Z,23.50
2017-08-30T13:52:41.128Z,25.40
2017-08-30T13:55:08.732Z,25.20
2017-08-30T13:57:36.127Z,25.17
2017-08-30T14:00:03.532Z,25.10
2017-08-30T14:02:31.290Z,24.77
2017-08-30T14:04:58.678Z,22.87
2017-08-30T14:07:26.074Z,23.73
2017-08-30T14:09:53.628Z,24.23
2017-08-30T14:12:21.883Z,24.13
2017-08-30T14:14:49.280Z,23.97
2017-08-30T14:17:16.895Z,24.33
2017-08-30T14:19:44.330Z,22.90
2017-08-30T14:22:11.718Z,24.53
2017-08-30T14:24:39.267Z,24.77
2017-08-30T14:27:06.660Z,27.03
2017-08-30T14:29:34.056Z,25.10
2017-08-30T14:32:01.572Z,25.53
2017-08-30T14:34:28.976Z,24.47
2017-08-30T14:36:56.393Z,25.87
2017-08-30T14:39:23.807Z,24.57
2017-08-30T14:41:51.216Z,25.30
2017-08-30T14:44:18.607Z,25.60
2017-08-30T14:46:46.043Z,25.53
2017-08-30T14:49:14.035Z,24.93
2017-08-30T14:51:41.441Z,25.60
2017-08-30T14:54:08.998Z,24.80
2017-08-30T14:56:36.405Z,25.50
2017-08-30T14:59:04.647Z,25.50
2017-08-30T15:01:32.071Z,26.57
2017-08-30T15:03:59.475Z,27.40
2017-08-30T15:06:26.889Z,27.03
2017-08-30T15:08:54.564Z,25.93
2017-08-30T15:11:22.000Z,26.20
2017-08-30T15:13:49.415Z,26.30
2017-08-30T15:16:17.061Z,25.83
2017-08-30T15:18:44.458Z,27.20
2017-08-30T15:21:11.851Z,27.80
2017-08-30T15:23:39.402Z,28.30
2017-08-30T15:26:06.791Z,28.30
2017-08-30T15:28:34.210Z,28.77
2017-08-30T15:31:01.748Z,28.67
2017-08-30T15:33:29.139Z,28.57
2017-08-30T15:35:56.534Z,29.40
2017-08-30T15:38:24.083Z,25.90
2017-08-30T15:40:51.521Z,26.80
2017-08-30T15:43:18.906Z,25.30
2017-08-30T15:45:46.311Z,26.80
2017-08-30T15:48:13.719Z,27.27
2017-08-30T15:50:41.111Z,26.70
2017-08-30T15:53:08.843Z,25.23
2017-08-30T15:55:36.234Z,27.33
2017-08-30T15:58:03.635Z,27.67
2017-08-30T16:00:31.295Z,25.40
2017-08-30T16:02:58.690Z,26.77
2017-08-30T16:05:26.087Z,26.07
2017-08-30T16:07:53.593Z,26.20
2017-08-30T16:10:21.007Z,27.03
2017-08-30T16:12:48.402Z,28.80
2017-08-30T16:15:15.903Z,27.50
2017-08-30T16:17:43.294Z,26.43
2017-08-30T16:20:10.690Z,26.00
2017-08-30T16:22:38.234Z,28.60
2017-08-30T16:25:05.630Z,26.27
2017-08-30T16:27:33.022Z,28.03
2017-08-30T16:30:00.571Z,29.17
2017-08-30T16:32:27.964Z,27.43
2017-08-30T16:34:55.354Z,28.33
2017-08-30T16:37:23.153Z,29.00
2017-08-30T16:39:50.556Z,28.40
2017-08-30T16:42:17.947Z,27.63
2017-08-30T16:44:45.447Z,27.87
2017-08-30T16:47:12.839Z,28.93
2017-08-30T16:49:40.233Z,28.07
2017-08-30T16:52:07.731Z,29.67
2017-08-30T16:54:35.123Z,29.10
2017-08-30T16:57:02.517Z,28.90
2017-08-30T16:59:30.478Z,30.10
2017-08-30T17:01:57.883Z,27.00
2017-08-30T17:04:25.274Z,28.10
2017-08-30T17:06:53.070Z,27.83
2017-08-30T17:09:20.472Z,28.57
2017-08-30T17:11:47.862Z,28.80
2017-08-30T17:14:15.640Z,31.37
2017-08-30T17:16:43.030Z,29.77
2017-08-30T17:19:10.422Z,28.37
2017-08-30T17:21:37.833Z,28.23
2017-08-30T17:24:05.237Z,29.30
2017-08-30T17:26:32.621Z,28.10
2017-08-30T17:29:00.066Z,28.27
2017-08-30T17:31:27.481Z,27.80
2017-08-30T17:33:54.858Z,28.60
2017-08-30T17:36:22.284Z,27.03
2017-08-30T17:38:49.671Z,27.00
2017-08-30T17:41:17.070Z,29.10
2017-08-30T17:43:44.762Z,27.30
2017-08-30T17:46:12.165Z,27.77
2017-08-30T17:48:39.566Z,27.10
2017-08-30T17:51:07.110Z,28.77
2017-08-30T17:53:34.507Z,26.90
2017-08-30T17:56:01.900Z,25.70
2017-08-30T17:58:29.446Z,27.83
2017-08-30T18:00:56.841Z,27.80
2017-08-30T18:03:24.334Z,26.97
2017-08-30T18:05:51.883Z,26.17
2017-08-30T18:08:19.283Z,27.97
2017-08-30T18:10:46.682Z,26.10
2017-08-30T18:13:14.103Z,25.37
2017-08-30T18:15:41.514Z,25.83
2017-08-30T18:18:08.923Z,27.83
2017-08-30T18:20:36.410Z,27.33
2017-08-30T18:23:03.799Z,25.87
2017-08-30T18:25:31.194Z,26.67
2017-08-30T18:27:58.746Z,27.13
2017-08-30T18:30:27.050Z,25.83
2017-08-30T18:32:54.446Z,25.57
2017-08-30T18:35:23.054Z,26.00
2017-08-30T18:37:50.447Z,26.73
2017-08-30T18:40:17.841Z,25.83
2017-08-30T18:42:45.239Z,27.50
2017-08-30T18:45:12.627Z,24.50
2017-08-30T18:47:40.018Z,27.57
2017-08-30T18:50:07.443Z,26.37
2017-08-30T18:52:34.854Z,27.27
2017-08-30T18:55:02.266Z,25.93
2017-08-30T18:57:29.675Z,25.70
2017-08-30T18:59:57.066Z,26.50
2017-08-30T19:02:24.458Z,26.10
2017-08-30T19:04:51.875Z,25.80
2017-08-30T19:07:19.267Z,25.73
2017-08-30T19:09:46.656Z,26.90
2017-08-30T19:12:14.069Z,27.60
2017-08-30T19:14:41.462Z,25.17
2017-08-30T19:17:08.852Z,26.77
2017-08-30T19:19:36.475Z,27.00
2017-08-30T19:22:03.868Z,25.33
2017-08-30T19:24:31.264Z,24.80
2017-08-30T19:26:58.822Z,26.60
2017-08-30T19:29:26.230Z,26.50
2017-08-30T19:31:53.615Z,25.10
2017-08-30T19:34:21.055Z,24.77
2017-08-30T19:36:48.542Z,25.57
2017-08-30T19:39:15.934Z,26.40
2017-08-30T19:41:43.383Z,23.63
2017-08-30T19:44:10.770Z,25.37
2017-08-30T19:46:38.164Z,23.67
2017-08-30T19:49:05.772Z,26.23
2017-08-30T19:51:33.167Z,25.70
2017-08-30T19:54:00.564Z,22.60
2017-08-30T19:56:28.062Z,20.50
2017-08-30T19:58:55.463Z,18.90
2017-08-30T20:01:22.859Z,17.97
2017-08-30T20:03:50.619Z,18.33
2017-08-30T20:06:18.011Z,17.23
2017-08-30T20:08:45.403Z,16.40
2017-08-30T20:11:12.818Z,15.90
2017-08-30T20:13:40.213Z,15.40
2017-08-30T20:16:07.601Z,14.90
2017-08-30T20:18:35.102Z,14.90
2017-08-30T20:21:02.494Z,13.37
2017-08-30T20:23:29.890Z,13.20
2017-08-30T20:25:57.444Z,12.97
2017-08-30T20:28:24.826Z,13.73
2017-08-30T20:30:52.218Z,14.70
2017-08-30T20:33:19.786Z,13.43
2017-08-30T20:35:47.178Z,13.60
2017-08-30T20:38:14.572Z,14.57
2017-08-30T20:40:42.123Z,13.67
2017-08-30T20:43:09.515Z,13.83
2017-08-30T20:45:36.909Z,13.73
2017-08-30T20:48:04.740Z,15.30
2017-08-30T20:50:32.131Z,15.53
2017-08-30T20:52:59.519Z,14.07
2017-08-30T20:55:26.959Z,14.17
2017-08-30T20:57:54.355Z,13.80
2017-08-30T21:00:21.776Z,14.80
2017-08-30T21:02:49.200Z,15.10
2017-08-30T21:05:16.595Z,13.53
2017-08-30T21:07:43.982Z,13.97
2017-08-30T21:10:11.659Z,13.80
2017-08-30T21:12:39.052Z,13.83
2017-08-30T21:15:06.439Z,14.67
2017-08-30T21:17:33.991Z,13.50
2017-08-30T21:20:01.383Z,13.67
2017-08-30T21:22:28.775Z,13.50
2017-08-30T21:24:56.322Z,13.00
2017-08-30T21:27:23.716Z,13.50
2017-08-30T21:29:51.106Z,13.27
2017-08-30T21:32:18.974Z,12.73
2017-08-30T21:34:46.366Z,12.73
2017-08-30T21:37:13.762Z,12.90
2017-08-30T21:39:41.317Z,12.67
2017-08-30T21:42:08.691Z,12.63
2017-08-30T21:44:36.083Z,13.03
2017-08-30T21:47:03.642Z,11.90
2017-08-30T21:49:31.027Z,11.83
2017-08-30T21:51:58.418Z,11.23
2017-08-30T21:54:25.818Z,12.60
2017-08-30T21:56:53.211Z,11.80
2017-08-30T21:59:20.612Z,12.07
2017-08-30T22:01:48.019Z,11.27
2017-08-30T22:04:15.420Z,10.73
2017-08-30T22:06:42.812Z,11.37
2017-08-30T22:09:10.315Z,11.10
2017-08-30T22:11:37.708Z,11.37
2017-08-30T22:14:05.146Z,11.83
2017-08-30T22:16:32.559Z,11.23
2017-08-30T22:18:59.951Z,11.17
2017-08-30T22:21:27.344Z,12.33
2017-08-30T22:23:54.758Z,11.60
2017-08-30T22:26:22.151Z,11.70
2017-08-30T22:28:49.544Z,12.07
2017-08-30T22:31:16.954Z,12.70
2017-08-30T22:33:44.350Z,12.40
2017-08-30T22:36:11.744Z,12.60
2017-08-30T22:38:39.513Z,12.77
2017-08-30T22:41:06.908Z,14.03
2017-08-30T22:43:34.298Z,13.20
2017-08-30T22:46:02.492Z,12.00
2017-08-30T22:48:29.884Z,12.70
2017-08-30T22:50:57.307Z,12.53
2017-08-30T22:53:24.855Z,13.10
2017-08-30T22:55:52.247Z,12.50
2017-08-30T22:58:19.650Z,12.87
2017-08-30T23:00:47.160Z,11.90
2017-08-30T23:03:14.555Z,12.67
2017-08-30T23:05:41.952Z,14.40
2017-08-30T23:08:09.497Z,15.90
2017-08-30T23:10:36.896Z,15.23
2017-08-30T23:13:04.283Z,15.00
2017-08-30T23:15:31.723Z,15.03
2017-08-30T23:17:59.126Z,16.33
2017-08-30T23:20:26.518Z,16.70
2017-08-30T23:22:53.922Z,18.47
2017-08-30T23:25:21.332Z,18.77
2017-08-30T23:27:48.726Z,20.13
2017-08-30T23:30:16.160Z,19.13
2017-08-30T23:32:43.561Z,19.20
2017-08-30T23:35:10.944Z,18.57
2017-08-30T23:37:38.451Z,19.57
2017-08-30T23:40:05.841Z,19.20
2017-08-30T23:42:33.230Z,21.53
2017-08-30T23:45:00.778Z,22.90
2017-08-30T23:47:28.170Z,21.50
2017-08-30T23:49:55.558Z,24.13
2017-08-30T23:52:22.998Z,21.97
2017-08-30T23:54:50.395Z,22.20
2017-08-30T23:57:17.787Z,22.40
2017-08-30T23:59:45.606Z,22.53
